createdAt,value
2024-03-28T00:00:28.679Z,10.23
2024-03-28T00:03:16.510Z,10.28
2024-03-28T00:05:55.998Z,10.32
2024-03-28T00:08:25.477Z,10.33
2024-03-28T00:10:54.353Z,10.34
2024-03-28T00:13:22.839Z,10.33
2024-03-28T00:16:00.426Z,10.32
2024-03-28T00:18:29.941Z,10.29
2024-03-28T00:21:03.113Z,10.25
2024-03-28T00:23:30.794Z,10.20
2024-03-28T00:25:59.671Z,10.15
2024-03-28T00:28:27.734Z,10.12
2024-03-28T00:30:55.387Z,10.08
2024-03-28T00:33:23.030Z,10.05
2024-03-28T00:35:51.142Z,10.03
2024-03-28T00:38:18.937Z,10.01
2024-03-28T00:40:56.464Z,9.97
2024-03-28T00:43:24.382Z,9.93
2024-03-28T00:45:52.016Z,9.90
2024-03-28T00:48:20.405Z,9.86
2024-03-28T00:51:00.090Z,9.84
2024-03-28T00:53:28.650Z,9.82
2024-03-28T00:55:58.817Z,9.80
2024-03-28T00:58:27.423Z,9.79
2024-03-28T01:00:55.140Z,9.77
2024-03-28T01:03:23.069Z,9.75
2024-03-28T01:05:58.511Z,9.73
2024-03-28T01:08:26.477Z,9.72
2024-03-28T01:10:55.496Z,9.70
2024-03-28T01:13:23.347Z,9.70
2024-03-28T01:15:50.927Z,9.70
2024-03-28T01:18:18.507Z,9.71
2024-03-28T01:20:46.162Z,9.71
2024-03-28T01:23:13.842Z,9.72
2024-03-28T01:25:41.497Z,9.74
2024-03-28T01:28:11.003Z,9.75
2024-03-28T01:30:40.539Z,9.75
2024-03-28T01:33:08.159Z,9.76
2024-03-28T01:35:37.505Z,9.75
2024-03-28T01:38:05.259Z,9.75
2024-03-28T01:40:32.931Z,9.72
2024-03-28T01:43:06.338Z,9.68
2024-03-28T01:45:34.964Z,9.65
2024-03-28T01:48:03.302Z,9.63
2024-03-28T01:50:31.392Z,9.61
2024-03-28T01:53:00.357Z,9.62
2024-03-28T01:55:28.447Z,9.66
2024-03-28T01:57:58.490Z,9.71
2024-03-28T02:00:26.303Z,9.77
2024-03-28T02:02:58.346Z,9.84
2024-03-28T02:05:26.563Z,9.90
2024-03-28T02:07:54.178Z,9.95
2024-03-28T02:10:21.815Z,10.00
2024-03-28T02:12:50.093Z,10.05
2024-03-28T02:15:17.739Z,10.09
2024-03-28T02:17:47.006Z,10.13
2024-03-28T02:20:14.780Z,10.17
2024-03-28T02:22:42.381Z,10.20
2024-03-28T02:25:10.389Z,10.21
2024-03-28T02:27:37.967Z,10.22
2024-03-28T02:30:09.918Z,10.23
2024-03-28T02:32:37.890Z,10.24
2024-03-28T02:35:08.053Z,10.26
2024-03-28T02:37:35.707Z,10.29
2024-03-28T02:40:03.442Z,10.33
2024-03-28T02:42:31.046Z,10.36
2024-03-28T02:44:58.664Z,10.39
2024-03-28T02:47:26.354Z,10.43
2024-03-28T02:49:54.569Z,10.45
2024-03-28T02:52:22.609Z,10.47
2024-03-28T02:54:50.359Z,10.47
2024-03-28T02:57:25.166Z,10.47
2024-03-28T02:59:52.890Z,10.48
2024-03-28T03:02:20.628Z,10.49
2024-03-28T03:04:48.536Z,10.51
2024-03-28T03:07:16.520Z,10.52
2024-03-28T03:09:44.264Z,10.53
2024-03-28T03:12:12.336Z,10.54
2024-03-28T03:14:39.971Z,10.54
2024-03-28T03:17:07.559Z,10.55
2024-03-28T03:19:35.361Z,10.55
2024-03-28T03:22:03.768Z,10.53
2024-03-28T03:24:31.396Z,10.52
2024-03-28T03:26:59.320Z,10.51
2024-03-28T03:29:27.017Z,10.50
2024-03-28T03:31:54.557Z,10.49
2024-03-28T03:34:22.264Z,10.49
2024-03-28T03:36:50.021Z,10.50
2024-03-28T03:39:17.567Z,10.52
2024-03-28T03:41:46.031Z,10.54
2024-03-28T03:44:13.686Z,10.57
2024-03-28T03:46:42.763Z,10.59
2024-03-28T03:49:10.522Z,10.62
2024-03-28T03:51:38.732Z,10.63
2024-03-28T03:54:06.352Z,10.65
2024-03-28T03:56:33.990Z,10.66
2024-03-28T03:59:02.899Z,10.68
2024-03-28T04:01:30.852Z,10.69
2024-03-28T04:03:58.495Z,10.70
2024-03-28T04:06:26.199Z,10.70
2024-03-28T04:08:53.962Z,10.70
2024-03-28T04:11:21.580Z,10.70
2024-03-28T04:13:49.170Z,10.71
2024-03-28T04:16:16.851Z,10.71
2024-03-28T04:18:44.446Z,10.70
2024-03-28T04:21:12.186Z,10.69
2024-03-28T04:23:39.932Z,10.68
2024-03-28T04:26:07.493Z,10.66
2024-03-28T04:28:35.066Z,10.63
2024-03-28T04:31:02.931Z,10.58
2024-03-28T04:33:30.493Z,10.54
2024-03-28T04:35:58.232Z,10.51
2024-03-28T04:38:25.809Z,10.49
2024-03-28T04:40:53.509Z,10.46
2024-03-28T04:43:21.219Z,10.45
2024-03-28T04:45:48.919Z,10.44
2024-03-28T04:48:16.698Z,10.42
2024-03-28T04:50:44.304Z,10.42
2024-03-28T04:53:12.082Z,10.42
2024-03-28T04:55:41.116Z,10.43
2024-03-28T04:58:08.778Z,10.45
2024-03-28T05:00:37.411Z,10.47
2024-03-28T05:03:05.747Z,10.49
2024-03-28T05:05:33.537Z,10.49
2024-03-28T05:08:01.178Z,10.50
2024-03-28T05:10:29.145Z,10.53
2024-03-28T05:12:57.091Z,10.55
2024-03-28T05:15:24.956Z,10.59
2024-03-28T05:17:52.571Z,10.64
2024-03-28T05:20:20.404Z,10.70
2024-03-28T05:22:47.979Z,10.76
2024-03-28T05:25:15.728Z,10.81
2024-03-28T05:27:43.343Z,10.84
2024-03-28T05:30:11.304Z,10.86
2024-03-28T05:32:38.895Z,10.89
2024-03-28T05:35:06.691Z,10.92
2024-03-28T05:37:34.261Z,10.94
2024-03-28T05:40:01.969Z,10.96
2024-03-28T05:42:29.615Z,11.01
2024-03-28T05:44:57.303Z,11.04
2024-03-28T05:47:24.951Z,11.07
2024-03-28T05:49:52.586Z,11.10
2024-03-28T05:52:20.176Z,11.13
2024-03-28T05:54:47.795Z,11.16
2024-03-28T05:57:15.432Z,11.18
2024-03-28T05:59:43.031Z,11.18
2024-03-28T06:02:10.624Z,11.19
2024-03-28T06:04:38.329Z,11.21
2024-03-28T06:07:05.937Z,11.24
2024-03-28T06:09:33.550Z,11.27
2024-03-28T06:12:01.743Z,11.32
2024-03-28T06:14:29.318Z,11.36
2024-03-28T06:16:56.930Z,11.42
2024-03-28T06:19:24.501Z,11.53
2024-03-28T06:21:52.093Z,11.62
2024-03-28T06:24:20.026Z,11.68
2024-03-28T06:26:50.669Z,11.72
2024-03-28T06:29:18.254Z,11.78
2024-03-28T06:31:46.002Z,11.85
2024-03-28T06:34:13.617Z,11.96
2024-03-28T06:36:41.204Z,12.08
2024-03-28T06:39:08.930Z,12.20
2024-03-28T06:41:36.528Z,12.33
2024-03-28T06:44:04.181Z,12.45
2024-03-28T06:46:32.056Z,12.56
2024-03-28T06:48:59.649Z,12.65
2024-03-28T06:51:27.282Z,12.70
2024-03-28T06:53:54.992Z,12.74
2024-03-28T06:56:22.636Z,12.77
2024-03-28T06:58:52.105Z,12.77
2024-03-28T07:01:19.947Z,12.75
2024-03-28T07:03:47.544Z,12.73
2024-03-28T07:06:19.339Z,12.71
2024-03-28T07:08:47.296Z,12.70
2024-03-28T07:11:15.017Z,12.70
2024-03-28T07:13:42.626Z,12.70
2024-03-28T07:16:10.456Z,12.70
2024-03-28T07:18:38.077Z,12.71
2024-03-28T07:21:05.743Z,12.72
2024-03-28T07:23:33.423Z,12.75
2024-03-28T07:26:01.094Z,12.79
2024-03-28T07:28:28.707Z,12.85
2024-03-28T07:30:56.312Z,12.96
2024-03-28T07:33:23.842Z,13.06
2024-03-28T07:35:51.556Z,13.18
2024-03-28T07:38:19.553Z,13.31
2024-03-28T07:40:51.861Z,13.44
2024-03-28T07:43:19.483Z,13.55
2024-03-28T07:45:47.101Z,13.62
2024-03-28T07:48:15.062Z,13.68
2024-03-28T07:50:42.718Z,13.75
2024-03-28T07:53:10.406Z,13.82
2024-03-28T07:55:38.006Z,13.88
2024-03-28T07:58:05.615Z,13.96
2024-03-28T08:00:33.459Z,13.97
2024-03-28T08:03:01.076Z,13.88
2024-03-28T08:05:28.778Z,13.78
2024-03-28T08:07:56.425Z,13.77
2024-03-28T08:10:24.234Z,13.81
2024-03-28T08:12:51.831Z,13.90
2024-03-28T08:15:19.440Z,13.93
2024-03-28T08:17:47.208Z,13.96
2024-03-28T08:20:14.968Z,13.98
2024-03-28T08:22:43.084Z,13.95
2024-03-28T08:25:10.742Z,13.88
2024-03-28T08:27:39.795Z,13.95
2024-03-28T08:30:08.121Z,14.06
2024-03-28T08:32:35.859Z,14.20
2024-03-28T08:35:03.856Z,14.30
2024-03-28T08:37:31.520Z,14.39
2024-03-28T08:39:59.397Z,14.46
2024-03-28T08:42:27.168Z,14.46
2024-03-28T08:44:54.776Z,14.55
2024-03-28T08:47:22.548Z,14.73
2024-03-28T08:49:50.280Z,14.96
2024-03-28T08:52:18.338Z,15.13
2024-03-28T08:54:46.052Z,15.35
2024-03-28T08:57:13.678Z,15.62
2024-03-28T08:59:41.298Z,15.98
2024-03-28T09:02:08.932Z,16.23
2024-03-28T09:04:36.615Z,16.54
2024-03-28T09:07:04.426Z,16.84
2024-03-28T09:09:32.088Z,16.94
2024-03-28T09:11:59.795Z,16.93
2024-03-28T09:14:27.406Z,16.79
2024-03-28T09:16:55.193Z,16.68
2024-03-28T09:19:22.802Z,16.71
2024-03-28T09:21:50.728Z,16.78
2024-03-28T09:24:18.906Z,16.87
2024-03-28T09:26:46.642Z,16.91
2024-03-28T09:29:14.346Z,16.87
2024-03-28T09:31:41.909Z,16.73
2024-03-28T09:34:09.490Z,16.72
2024-03-28T09:36:37.523Z,16.90
2024-03-28T09:39:05.251Z,17.01
2024-03-28T09:41:34.550Z,17.17
2024-03-28T09:44:06.628Z,17.23
2024-03-28T09:46:34.759Z,17.52
2024-03-28T09:49:03.726Z,17.90
2024-03-28T09:51:31.394Z,17.75
2024-03-28T09:53:59.151Z,17.57
2024-03-28T09:56:26.698Z,17.21
2024-03-28T09:58:55.615Z,16.69
2024-03-28T10:01:25.018Z,16.19
2024-03-28T10:04:06.405Z,15.82
2024-03-28T10:06:34.060Z,15.59
2024-03-28T10:09:03.046Z,15.38
2024-03-28T10:11:31.080Z,15.11
2024-03-28T10:13:58.849Z,14.68
2024-03-28T10:16:26.651Z,14.43
2024-03-28T10:18:57.587Z,14.37
2024-03-28T10:21:25.371Z,14.31
2024-03-28T10:23:53.028Z,14.30
2024-03-28T10:26:20.791Z,14.51
2024-03-28T10:28:48.636Z,14.94
2024-03-28T10:31:26.406Z,15.54
2024-03-28T10:33:54.569Z,16.50
2024-03-28T10:36:25.285Z,17.05
2024-03-28T10:39:03.219Z,17.55
2024-03-28T10:41:31.104Z,18.51
2024-03-28T10:44:01.639Z,19.29
2024-03-28T10:46:29.938Z,19.76
2024-03-28T10:48:58.280Z,19.38
2024-03-28T10:51:32.954Z,18.65
2024-03-28T10:54:06.576Z,18.29
2024-03-28T10:56:40.376Z,17.91
2024-03-28T10:59:09.839Z,17.83
2024-03-28T11:01:38.406Z,17.86
2024-03-28T11:04:06.543Z,17.53
2024-03-28T11:06:34.401Z,16.72
2024-03-28T11:09:02.587Z,16.26
2024-03-28T11:11:31.784Z,15.99
2024-03-28T11:13:59.501Z,15.91
2024-03-28T11:16:27.236Z,15.91
2024-03-28T11:19:01.072Z,16.02
2024-03-28T11:21:30.429Z,16.63
2024-03-28T11:23:59.364Z,17.05
2024-03-28T11:26:27.747Z,18.04
2024-03-28T11:29:06.407Z,18.83
2024-03-28T11:31:35.847Z,19.04
2024-03-28T11:34:06.578Z,18.70
2024-03-28T11:36:34.699Z,18.12
2024-03-28T11:39:02.330Z,17.57
2024-03-28T11:41:30.708Z,17.23
2024-03-28T11:43:58.440Z,17.00
2024-03-28T11:46:26.021Z,16.99
2024-03-28T11:49:07.731Z,17.16
2024-03-28T11:51:43.993Z,17.47
2024-03-28T11:54:12.556Z,18.74
2024-03-28T11:56:44.102Z,19.61
2024-03-28T11:59:21.737Z,19.22
2024-03-28T12:01:50.233Z,18.89
2024-03-28T12:04:25.041Z,18.57
2024-03-28T12:06:54.715Z,18.40
2024-03-28T12:09:22.590Z,18.15
2024-03-28T12:11:50.266Z,17.71
2024-03-28T12:14:23.928Z,17.05
2024-03-28T12:16:51.645Z,16.43
2024-03-28T12:19:25.821Z,16.11
2024-03-28T12:21:53.441Z,16.53
2024-03-28T12:24:21.218Z,16.55
2024-03-28T12:26:48.836Z,16.44
2024-03-28T12:29:24.974Z,16.27
2024-03-28T12:32:06.619Z,16.07
2024-03-28T12:34:34.385Z,16.05
2024-03-28T12:37:02.165Z,16.14
2024-03-28T12:39:29.795Z,16.71
2024-03-28T12:41:57.516Z,17.78
2024-03-28T12:44:28.039Z,20.27
2024-03-28T12:46:55.611Z,22.62
2024-03-28T12:49:23.688Z,23.89
2024-03-28T12:51:51.290Z,25.20
2024-03-28T12:54:18.903Z,25.75
2024-03-28T12:56:46.689Z,26.89
2024-03-28T12:59:14.456Z,27.01
2024-03-28T13:01:42.227Z,27.03
2024-03-28T13:04:09.890Z,27.11
2024-03-28T13:06:41.830Z,28.13
2024-03-28T13:09:12.325Z,29.20
2024-03-28T13:11:39.902Z,29.77
2024-03-28T13:14:07.455Z,29.47
2024-03-28T13:16:35.063Z,28.47
2024-03-28T13:19:02.654Z,27.15
2024-03-28T13:21:30.274Z,26.24
2024-03-28T13:23:57.888Z,25.43
2024-03-28T13:26:44.061Z,25.14
2024-03-28T13:29:13.025Z,25.12
2024-03-28T13:31:40.678Z,26.33
2024-03-28T13:34:08.367Z,27.02
2024-03-28T13:36:36.324Z,28.35
2024-03-28T13:39:04.230Z,28.36
2024-03-28T13:41:32.205Z,28.56
2024-03-28T13:43:59.853Z,28.80
2024-03-28T13:46:27.744Z,28.34
2024-03-28T13:48:55.457Z,28.58
2024-03-28T13:51:23.158Z,29.05
2024-03-28T13:53:50.740Z,29.14
2024-03-28T13:56:18.413Z,29.86
2024-03-28T13:58:46.216Z,30.31
2024-03-28T14:01:14.378Z,30.12
2024-03-28T14:03:42.005Z,30.19
2024-03-28T14:06:09.659Z,30.08
2024-03-28T14:08:37.328Z,30.16
2024-03-28T14:11:05.019Z,30.51
2024-03-28T14:13:32.631Z,31.20
2024-03-28T14:16:00.733Z,31.35
2024-03-28T14:18:28.390Z,31.13
2024-03-28T14:20:55.978Z,29.33
2024-03-28T14:23:23.953Z,26.93
2024-03-28T14:26:00.161Z,24.71
2024-03-28T14:28:28.468Z,22.91
2024-03-28T14:30:56.392Z,21.39
2024-03-28T14:33:23.987Z,20.05
2024-03-28T14:36:06.302Z,19.13
2024-03-28T14:38:34.589Z,18.32
2024-03-28T14:41:07.362Z,17.84
2024-03-28T14:43:36.687Z,17.35
2024-03-28T14:46:09.188Z,16.94
2024-03-28T14:48:37.682Z,16.60
2024-03-28T14:51:09.911Z,16.27
2024-03-28T14:53:38.943Z,16.05
2024-03-28T14:56:07.082Z,15.86
2024-03-28T14:58:42.489Z,15.70
2024-03-28T15:01:12.651Z,15.55
2024-03-28T15:03:40.423Z,15.37
2024-03-28T15:06:08.312Z,15.23
2024-03-28T15:08:35.976Z,15.10
2024-03-28T15:11:05.065Z,15.01
2024-03-28T15:13:32.882Z,14.95
2024-03-28T15:16:02.203Z,14.89
2024-03-28T15:18:29.901Z,14.83
2024-03-28T15:20:57.547Z,14.76
2024-03-28T15:23:25.998Z,14.73
2024-03-28T15:25:53.623Z,14.72
2024-03-28T15:28:21.253Z,14.72
2024-03-28T15:30:49.324Z,14.69
2024-03-28T15:33:16.878Z,14.69
2024-03-28T15:35:44.506Z,14.66
2024-03-28T15:38:12.134Z,14.63
2024-03-28T15:40:39.835Z,14.69
2024-03-28T15:43:07.593Z,15.93
2024-03-28T15:45:35.573Z,18.35
2024-03-28T15:48:03.547Z,20.29
2024-03-28T15:50:31.192Z,22.07
2024-03-28T15:52:58.964Z,23.38
2024-03-28T15:55:26.720Z,24.35
2024-03-28T15:57:54.329Z,24.48
2024-03-28T16:00:22.097Z,23.71
2024-03-28T16:02:49.803Z,22.50
2024-03-28T16:05:17.600Z,21.39
2024-03-28T16:07:45.550Z,20.43
2024-03-28T16:10:14.672Z,19.82
2024-03-28T16:12:43.774Z,19.36
2024-03-28T16:15:11.383Z,18.81
2024-03-28T16:17:39.111Z,18.11
2024-03-28T16:20:07.370Z,17.56
2024-03-28T16:22:34.994Z,16.98
2024-03-28T16:25:02.774Z,16.49
2024-03-28T16:27:30.684Z,16.16
2024-03-28T16:29:58.299Z,15.83
2024-03-28T16:32:25.927Z,15.53
2024-03-28T16:34:53.588Z,15.24
2024-03-28T16:37:21.175Z,14.97
2024-03-28T16:39:48.849Z,14.75
2024-03-28T16:42:16.483Z,14.57
2024-03-28T16:44:44.163Z,14.39
2024-03-28T16:47:12.028Z,14.21
2024-03-28T16:49:39.611Z,14.04
2024-03-28T16:52:07.815Z,13.91
2024-03-28T16:54:35.431Z,13.78
2024-03-28T16:57:03.107Z,13.63
2024-03-28T16:59:30.788Z,13.48
2024-03-28T17:01:58.355Z,13.34
2024-03-28T17:04:27.379Z,13.19
2024-03-28T17:06:56.506Z,13.05
2024-03-28T17:09:24.118Z,12.92
2024-03-28T17:11:52.666Z,12.82
2024-03-28T17:14:20.603Z,12.75
2024-03-28T17:16:48.240Z,12.68
2024-03-28T17:19:18.224Z,12.63
2024-03-28T17:21:47.666Z,12.56
2024-03-28T17:24:15.247Z,12.48
2024-03-28T17:26:42.948Z,12.39
2024-03-28T17:29:10.703Z,12.30
2024-03-28T17:31:38.300Z,12.23
2024-03-28T17:34:06.004Z,12.17
2024-03-28T17:36:33.707Z,12.11
2024-03-28T17:39:01.379Z,12.04
2024-03-28T17:41:29.295Z,11.97
2024-03-28T17:43:57.009Z,11.90
2024-03-28T17:46:25.749Z,11.84
2024-03-28T17:48:54.710Z,11.76
2024-03-28T17:51:22.470Z,11.71
2024-03-28T17:53:50.705Z,11.65
2024-03-28T17:56:18.356Z,11.61
2024-03-28T17:58:46.273Z,11.56
2024-03-28T18:01:13.874Z,11.52
2024-03-28T18:03:41.793Z,11.47
2024-03-28T18:06:09.419Z,11.39
2024-03-28T18:08:37.014Z,11.32
2024-03-28T18:11:04.706Z,11.23
2024-03-28T18:13:32.433Z,11.15
2024-03-28T18:16:04.108Z,11.11
2024-03-28T18:18:31.820Z,11.09
2024-03-28T18:21:03.215Z,11.06
2024-03-28T18:23:30.914Z,11.06
2024-03-28T18:26:00.906Z,11.05
2024-03-28T18:28:28.757Z,11.04
2024-03-28T18:30:56.384Z,11.02
2024-03-28T18:33:24.152Z,11.01
2024-03-28T18:36:02.012Z,11.00
2024-03-28T18:38:29.962Z,10.99
2024-03-28T18:40:57.644Z,10.97
2024-03-28T18:43:25.666Z,10.95
2024-03-28T18:45:58.656Z,10.94
2024-03-28T18:48:26.814Z,10.93
2024-03-28T18:50:55.730Z,10.92
2024-03-28T18:53:23.465Z,10.90
2024-03-28T18:56:02.035Z,10.87
2024-03-28T18:58:29.726Z,10.85
2024-03-28T19:00:57.819Z,10.81
2024-03-28T19:03:25.607Z,10.78
2024-03-28T19:05:53.425Z,10.73
2024-03-28T19:08:21.120Z,10.69
2024-03-28T19:10:49.777Z,10.66
2024-03-28T19:13:17.384Z,10.66
2024-03-28T19:15:47.582Z,10.68
2024-03-28T19:18:16.037Z,10.68
2024-03-28T19:20:46.799Z,10.69
2024-03-28T19:23:16.580Z,10.68
2024-03-28T19:25:46.631Z,10.66
2024-03-28T19:28:14.976Z,10.64
2024-03-28T19:30:45.170Z,10.61
2024-03-28T19:33:13.349Z,10.54
2024-03-28T19:35:42.381Z,10.50
2024-03-28T19:38:12.381Z,10.46
2024-03-28T19:40:40.109Z,10.43
2024-03-28T19:43:07.852Z,10.46
2024-03-28T19:45:37.912Z,10.50
2024-03-28T19:48:07.489Z,10.52
2024-03-28T19:50:35.746Z,10.52
2024-03-28T19:53:04.613Z,10.49
2024-03-28T19:55:33.023Z,10.50
2024-03-28T19:58:01.003Z,10.54
2024-03-28T20:00:29.222Z,10.60
2024-03-28T20:02:56.952Z,10.67
2024-03-28T20:05:25.918Z,10.72
2024-03-28T20:07:58.742Z,10.78
2024-03-28T20:10:26.681Z,10.82
2024-03-28T20:12:54.285Z,10.85
2024-03-28T20:15:24.249Z,10.88
2024-03-28T20:17:52.008Z,10.89
2024-03-28T20:20:19.636Z,10.90
2024-03-28T20:22:47.580Z,10.92
2024-03-28T20:25:15.397Z,10.92
2024-03-28T20:27:43.379Z,10.91
2024-03-28T20:30:11.682Z,10.86
2024-03-28T20:32:39.411Z,10.79
2024-03-28T20:35:07.352Z,10.73
2024-03-28T20:37:37.846Z,10.69
2024-03-28T20:40:06.286Z,10.66
2024-03-28T20:42:33.948Z,10.66
2024-03-28T20:45:01.634Z,10.65
2024-03-28T20:47:29.469Z,10.60
2024-03-28T20:49:57.373Z,10.55
2024-03-28T20:52:25.075Z,10.54
2024-03-28T21:18:09.306Z,9.60
2024-03-28T21:20:36.992Z,9.54
2024-03-28T21:23:04.790Z,9.51
2024-03-28T21:25:32.675Z,9.46
2024-03-28T21:28:00.449Z,9.40
2024-03-28T21:30:30.213Z,9.33
2024-03-28T21:32:57.989Z,9.23
2024-03-28T21:35:29.164Z,9.15
2024-03-28T21:37:56.787Z,9.06
2024-03-28T21:40:24.612Z,8.97
2024-03-28T21:42:52.311Z,8.92
2024-03-28T21:45:19.994Z,8.88
2024-03-28T21:47:47.699Z,8.85
2024-03-28T21:50:15.373Z,8.82
2024-03-28T21:52:43.058Z,8.78
2024-03-28T21:55:11.399Z,8.75
2024-03-28T21:57:39.114Z,8.70
2024-03-28T22:00:07.762Z,8.64
2024-03-28T22:02:36.038Z,8.59
2024-03-28T22:05:03.870Z,8.51
2024-03-28T22:07:31.552Z,8.42
2024-03-28T22:10:00.074Z,8.33
2024-03-28T22:12:27.850Z,8.24
2024-03-28T22:14:55.412Z,8.16
2024-03-28T22:17:23.175Z,8.10
2024-03-28T22:19:50.762Z,8.00
2024-03-28T22:22:18.332Z,7.90
2024-03-28T22:24:46.512Z,7.81
2024-03-28T22:27:14.344Z,7.74
2024-03-28T22:29:41.938Z,7.67
2024-03-28T22:32:09.634Z,7.62
2024-03-28T22:34:37.474Z,7.56
2024-03-28T22:37:05.126Z,7.47
2024-03-28T22:39:33.112Z,7.36
2024-03-28T22:42:01.020Z,7.27
2024-03-28T22:44:28.608Z,7.18
2024-03-28T22:46:56.336Z,7.09
2024-03-28T22:49:24.156Z,7.01
2024-03-28T22:51:52.657Z,6.94
2024-03-28T22:54:20.572Z,6.88
2024-03-28T22:56:48.323Z,6.84
2024-03-28T22:59:15.882Z,6.79
2024-03-28T23:01:43.603Z,6.77
2024-03-28T23:04:11.429Z,6.75
2024-03-28T23:06:39.055Z,6.74
2024-03-28T23:09:06.672Z,6.72
2024-03-28T23:11:34.261Z,6.70
2024-03-28T23:14:01.925Z,6.71
2024-03-28T23:16:29.727Z,6.70
2024-03-28T23:18:57.327Z,6.69
2024-03-28T23:21:25.286Z,6.69
2024-03-28T23:23:53.019Z,6.70
2024-03-28T23:26:20.669Z,6.70
2024-03-28T23:28:48.892Z,6.70
2024-03-28T23:31:16.493Z,6.69
2024-03-28T23:33:44.088Z,6.69
2024-03-28T23:36:11.727Z,6.69
2024-03-28T23:38:39.684Z,6.68
2024-03-28T23:41:07.357Z,6.68
2024-03-28T23:43:34.984Z,6.66
2024-03-28T23:46:02.730Z,6.65
2024-03-28T23:48:30.369Z,6.65
2024-03-28T23:50:58.146Z,6.65
2024-03-28T23:53:25.988Z,6.64
2024-03-28T23:55:53.697Z,6.61
2024-03-28T23:58:21.285Z,6.58
